Main page
METAR-TAF:

METAR-TAF

Airports :

Bornholm Airport

Rønne, Denmark

latitude: 55-04N, longitude: 014-45E, elevation: 16 m

Current weather observation

The report was made 18 minutes ago, at 17:50 UTC
Wind 10 kt from the West
Temperature 17°C
Humidity 72%
Pressure 1014 hPa
Visibility 10 km or more

METAR: EKRN 221750Z AUTO 28010KT 9999 BKN110/// 17/12 Q1014

Time: 20:08 (18:08 UTC)

Forecast

The report was made 2 hours and 31 minutes ago, at 15:37 UTC
Forecast valid from 22 at 15 UTC to 22 at 21 UTC
Wind 12 kt from the West
Visibility 10 km or more
no clouds below 1500 m and no cumulonimbus
Temporary
from 22 at 16 UTC to 22 at 21 UTC
Scattered clouds at a height of 6000 ft, Cumulonimbus.
rain showers

TAF: EKRN 221537Z 2215/2221 28012KT CAVOK TEMPO 2216/2221 SHRA SCT060CB

Weather observations and forecasts of more than 4000 airports (METAR and TAF reports).

The available stations are represented by yellow and red dots on the map.

Hover mouse over dot to see the name of the station.

Then click to see weather observations and forecasts.

To change the map : click on the green buttons with a black cross to zoom in, on the green button with a dash to zoom out, or on the green arrows for adjacent maps.


METAR-TAF: